sensor_id;sensor_type;location;lat;lon;timestamp;pressure;altitude;pressure_sealevel;temperature;humidity
69780;BME280;57052;55.602;38.096;2023-01-31T00:00:46;98497.38;;;-0.06;71.72
69780;BME280;57052;55.602;38.096;2023-01-31T00:03:14;98513.72;;;0.03;71.93
69780;BME280;57052;55.602;38.096;2023-01-31T00:05:39;98507.03;;;0.00;71.63
69780;BME280;57052;55.602;38.096;2023-01-31T00:08:05;98525.22;;;0.09;71.90
69780;BME280;57052;55.602;38.096;2023-01-31T00:10:31;98526.28;;;0.08;71.65
69780;BME280;57052;55.602;38.096;2023-01-31T00:12:57;98524.69;;;0.07;71.91
69780;BME280;57052;55.602;38.096;2023-01-31T00:15:22;98521.22;;;0.06;71.59
69780;BME280;57052;55.602;38.096;2023-01-31T00:17:48;98517.72;;;0.06;71.85
69780;BME280;57052;55.602;38.096;2023-01-31T00:20:13;98518.81;;;0.05;72.05
69780;BME280;57052;55.602;38.096;2023-01-31T00:22:39;98509.03;;;-0.07;72.40
69780;BME280;57052;55.602;38.096;2023-01-31T00:25:05;98513.34;;;-0.06;72.59
69780;BME280;57052;55.602;38.096;2023-01-31T00:27:31;98523.94;;;0.11;72.08
69780;BME280;57052;55.602;38.096;2023-01-31T00:29:57;98527.63;;;0.10;72.05
69780;BME280;57052;55.602;38.096;2023-01-31T00:32:23;98516.44;;;0.08;72.34
69780;BME280;57052;55.602;38.096;2023-01-31T00:34:53;98527.41;;;0.12;72.11
69780;BME280;57052;55.602;38.096;2023-01-31T00:37:20;98523.94;;;0.11;72.30
69780;BME280;57052;55.602;38.096;2023-01-31T00:39:46;98513.97;;;0.02;72.02
69780;BME280;57052;55.602;38.096;2023-01-31T00:42:11;98530.88;;;0.12;71.96
69780;BME280;57052;55.602;38.096;2023-01-31T00:44:37;98523.88;;;0.06;72.39
69780;BME280;57052;55.602;38.096;2023-01-31T00:47:05;98529.19;;;0.06;72.02
69780;BME280;57052;55.602;38.096;2023-01-31T00:49:30;98525.16;;;0.04;72.54
69780;BME280;57052;55.602;38.096;2023-01-31T00:51:56;98524.28;;;-0.02;71.93
69780;BME280;57052;55.602;38.096;2023-01-31T00:54:25;98525.56;;;-0.05;72.79
69780;BME280;57052;55.602;38.096;2023-01-31T00:56:50;98524.03;;;-0.01;71.74
69780;BME280;57052;55.602;38.096;2023-01-31T00:59:16;98522.41;;;-0.02;72.25
69780;BME280;57052;55.602;38.096;2023-01-31T01:01:41;98525.41;;;0.02;71.91
69780;BME280;57052;55.602;38.096;2023-01-31T01:04:07;98518.66;;;-0.06;72.10
69780;BME280;57052;55.602;38.096;2023-01-31T01:06:33;98522.50;;;0.04;72.04
69780;BME280;57052;55.602;38.096;2023-01-31T01:08:59;98529.91;;;0.02;72.09
69780;BME280;57052;55.602;38.096;2023-01-31T01:11:26;98531.28;;;0.04;71.89
69780;BME280;57052;55.602;38.096;2023-01-31T01:13:53;98537.50;;;0.10;72.12
69780;BME280;57052;55.602;38.096;2023-01-31T01:16:23;98539.50;;;0.03;72.06
69780;BME280;57052;55.602;38.096;2023-01-31T01:18:50;98536.22;;;0.12;71.61
69780;BME280;57052;55.602;38.096;2023-01-31T01:21:28;98543.19;;;0.18;71.85
69780;BME280;57052;55.602;38.096;2023-01-31T01:23:58;98551.44;;;0.17;71.90
69780;BME280;57052;55.602;38.096;2023-01-31T01:26:29;98535.41;;;0.12;71.67
69780;BME280;57052;55.602;38.096;2023-01-31T01:28:57;98539.50;;;0.03;72.40
69780;BME280;57052;55.602;38.096;2023-01-31T01:31:23;98547.88;;;0.11;71.66
69780;BME280;57052;55.602;38.096;2023-01-31T01:34:03;98538.88;;;0.12;71.95
69780;BME280;57052;55.602;38.096;2023-01-31T01:36:31;98532.72;;;0.12;71.52
69780;BME280;57052;55.602;38.096;2023-01-31T01:38:58;98557.22;;;0.14;71.81
69780;BME280;57052;55.602;38.096;2023-01-31T01:41:24;98546.84;;;0.12;71.63
69780;BME280;57052;55.602;38.096;2023-01-31T01:43:55;98553.84;;;0.18;71.37
69780;BME280;57052;55.602;38.096;2023-01-31T01:46:31;98538.13;;;0.17;71.81
69780;BME280;57052;55.602;38.096;2023-01-31T01:49:21;98552.63;;;0.26;71.42
69780;BME280;57052;55.602;38.096;2023-01-31T01:51:46;98545.63;;;0.20;71.27
69780;BME280;57052;55.602;38.096;2023-01-31T01:54:17;98555.13;;;0.32;71.10
69780;BME280;57052;55.602;38.096;2023-01-31T01:56:47;98549.97;;;0.26;71.46
69780;BME280;57052;55.602;38.096;2023-01-31T02:01:44;98541.28;;;0.14;71.61
69780;BME280;57052;55.602;38.096;2023-01-31T02:04:16;98536.97;;;0.13;71.39
69780;BME280;57052;55.602;38.096;2023-01-31T02:06:44;98544.63;;;0.26;70.98
69780;BME280;57052;55.602;38.096;2023-01-31T02:09:24;98552.06;;;0.24;71.16
69780;BME280;57052;55.602;38.096;2023-01-31T02:11:51;98549.22;;;0.30;71.16
69780;BME280;57052;55.602;38.096;2023-01-31T02:14:17;98537.59;;;0.36;71.06
69780;BME280;57052;55.602;38.096;2023-01-31T02:16:43;98551.38;;;0.50;70.71
69780;BME280;57052;55.602;38.096;2023-01-31T02:19:19;98541.22;;;0.47;70.62
69780;BME280;57052;55.602;38.096;2023-01-31T02:24:26;98552.91;;;0.46;70.63
69780;BME280;57052;55.602;38.096;2023-01-31T02:32:37;98524.41;;;0.25;70.98
69780;BME280;57052;55.602;38.096;2023-01-31T02:46:13;98532.16;;;0.26;71.31
69780;BME280;57052;55.602;38.096;2023-01-31T02:48:54;98540.91;;;0.43;71.49
69780;BME280;57052;55.602;38.096;2023-01-31T02:51:31;98536.00;;;0.35;71.42
69780;BME280;57052;55.602;38.096;2023-01-31T02:56:35;98530.03;;;0.28;71.52
69780;BME280;57052;55.602;38.096;2023-01-31T02:59:07;98537.88;;;0.35;71.39
69780;BME280;57052;55.602;38.096;2023-01-31T03:01:43;98544.22;;;0.34;71.13
69780;BME280;57052;55.602;38.096;2023-01-31T03:04:12;98544.56;;;0.37;71.36
69780;BME280;57052;55.602;38.096;2023-01-31T03:06:58;98542.03;;;0.31;71.55
69780;BME280;57052;55.602;38.096;2023-01-31T03:10:08;98543.28;;;0.23;71.80
69780;BME280;57052;55.602;38.096;2023-01-31T03:12:49;98540.38;;;0.25;71.83
69780;BME280;57052;55.602;38.096;2023-01-31T03:15:36;98538.94;;;0.17;71.53
69780;BME280;57052;55.602;38.096;2023-01-31T03:18:29;98525.72;;;0.22;71.54
69780;BME280;57052;55.602;38.096;2023-01-31T03:21:09;98532.63;;;0.23;71.54
69780;BME280;57052;55.602;38.096;2023-01-31T03:23:38;98523.59;;;0.24;71.51
69780;BME280;57052;55.602;38.096;2023-01-31T03:26:06;98532.16;;;0.26;71.56
69780;BME280;57052;55.602;38.096;2023-01-31T03:28:35;98534.81;;;0.26;71.90
69780;BME280;57052;55.602;38.096;2023-01-31T03:31:07;98534.88;;;0.31;71.47
69780;BME280;57052;55.602;38.096;2023-01-31T03:33:38;98535.63;;;0.27;71.35
69780;BME280;57052;55.602;38.096;2023-01-31T03:36:14;98540.31;;;0.20;71.43
69780;BME280;57052;55.602;38.096;2023-01-31T03:38:54;98550.44;;;0.39;71.41
69780;BME280;57052;55.602;38.096;2023-01-31T03:41:33;98558.72;;;0.43;71.31
69780;BME280;57052;55.602;38.096;2023-01-31T03:44:05;98551.94;;;0.35;71.55
69780;BME280;57052;55.602;38.096;2023-01-31T03:46:39;98557.94;;;0.26;71.61
69780;BME280;57052;55.602;38.096;2023-01-31T03:49:11;98549.41;;;0.24;71.92
69780;BME280;57052;55.602;38.096;2023-01-31T03:51:41;98557.78;;;0.32;71.51
69780;BME280;57052;55.602;38.096;2023-01-31T03:54:19;98550.50;;;0.28;71.27
69780;BME280;57052;55.602;38.096;2023-01-31T03:57:17;98552.69;;;0.31;71.29
69780;BME280;57052;55.602;38.096;2023-01-31T03:59:42;98560.00;;;0.40;71.45
69780;BME280;57052;55.602;38.096;2023-01-31T04:02:13;98572.59;;;0.45;70.81
69780;BME280;57052;55.602;38.096;2023-01-31T04:04:49;98576.31;;;0.44;71.28
69780;BME280;57052;55.602;38.096;2023-01-31T04:07:17;98586.13;;;0.43;70.98
69780;BME280;57052;55.602;38.096;2023-01-31T04:09:43;98577.34;;;0.43;71.18
69780;BME280;57052;55.602;38.096;2023-01-31T04:12:11;98576.50;;;0.37;71.35
69780;BME280;57052;55.602;38.096;2023-01-31T04:14:37;98575.28;;;0.28;71.74
69780;BME280;57052;55.602;38.096;2023-01-31T04:17:03;98588.00;;;0.43;71.51
69780;BME280;57052;55.602;38.096;2023-01-31T04:19:29;98584.47;;;0.37;71.61
69780;BME280;57052;55.602;38.096;2023-01-31T04:21:54;98583.66;;;0.37;71.35
69780;BME280;57052;55.602;38.096;2023-01-31T04:24:20;98575.81;;;0.30;71.80
69780;BME280;57052;55.602;38.096;2023-01-31T04:26:46;98581.06;;;0.42;71.56
69780;BME280;57052;55.602;38.096;2023-01-31T04:29:12;98584.13;;;0.34;71.62
69780;BME280;57052;55.602;38.096;2023-01-31T04:31:38;98573.41;;;0.29;71.75
69780;BME280;57052;55.602;38.096;2023-01-31T04:34:04;98594.22;;;0.32;71.79
69780;BME280;57052;55.602;38.096;2023-01-31T04:36:30;98595.03;;;0.32;71.85
69780;BME280;57052;55.602;38.096;2023-01-31T04:38:55;98589.56;;;0.22;71.95
69780;BME280;57052;55.602;38.096;2023-01-31T04:41:21;98588.03;;;0.26;71.80
69780;BME280;57052;55.602;38.096;2023-01-31T04:43:47;98584.31;;;0.27;71.40
69780;BME280;57052;55.602;38.096;2023-01-31T04:46:12;98599.00;;;0.30;71.68
69780;BME280;57052;55.602;38.096;2023-01-31T04:48:40;98594.47;;;0.30;71.58
69780;BME280;57052;55.602;38.096;2023-01-31T04:51:06;98602.69;;;0.29;71.38
69780;BME280;57052;55.602;38.096;2023-01-31T04:53:32;98609.78;;;0.40;71.48
69780;BME280;57052;55.602;38.096;2023-01-31T04:55:58;98599.78;;;0.30;71.50
69780;BME280;57052;55.602;38.096;2023-01-31T04:58:23;98619.28;;;0.36;71.32
69780;BME280;57052;55.602;38.096;2023-01-31T05:00:49;98623.50;;;0.32;71.59
69780;BME280;57052;55.602;38.096;2023-01-31T05:03:15;98619.78;;;0.33;71.26
69780;BME280;57052;55.602;38.096;2023-01-31T05:05:40;98606.91;;;0.25;71.66
69780;BME280;57052;55.602;38.096;2023-01-31T05:08:06;98615.19;;;0.28;71.89
69780;BME280;57052;55.602;38.096;2023-01-31T05:10:33;98616.41;;;0.37;71.70
69780;BME280;57052;55.602;38.096;2023-01-31T05:12:59;98614.13;;;0.46;71.82
69780;BME280;57052;55.602;38.096;2023-01-31T05:15:24;98616.31;;;0.49;71.62
69780;BME280;57052;55.602;38.096;2023-01-31T05:17:52;98620.44;;;0.40;71.70
69780;BME280;57052;55.602;38.096;2023-01-31T05:20:18;98614.88;;;0.41;71.48
69780;BME280;57052;55.602;38.096;2023-01-31T05:22:46;98607.53;;;0.32;71.79
69780;BME280;57052;55.602;38.096;2023-01-31T05:25:13;98616.72;;;0.41;71.33
69780;BME280;57052;55.602;38.096;2023-01-31T05:27:40;98619.44;;;0.46;71.52
69780;BME280;57052;55.602;38.096;2023-01-31T05:30:06;98618.97;;;0.49;71.25
69780;BME280;57052;55.602;38.096;2023-01-31T05:32:32;98619.38;;;0.41;71.52
69780;BME280;57052;55.602;38.096;2023-01-31T05:34:57;98604.69;;;0.38;71.44
69780;BME280;57052;55.602;38.096;2023-01-31T05:37:23;98610.56;;;0.40;71.13
69780;BME280;57052;55.602;38.096;2023-01-31T05:39:48;98619.53;;;0.51;71.67
69780;BME280;57052;55.602;38.096;2023-01-31T05:42:14;98607.50;;;0.48;71.48
69780;BME280;57052;55.602;38.096;2023-01-31T05:44:39;98615.28;;;0.50;70.97
69780;BME280;57052;55.602;38.096;2023-01-31T05:47:05;98606.53;;;0.38;71.77
69780;BME280;57052;55.602;38.096;2023-01-31T05:49:31;98618.50;;;0.52;71.52
69780;BME280;57052;55.602;38.096;2023-01-31T05:51:59;98610.34;;;0.42;71.14
69780;BME280;57052;55.602;38.096;2023-01-31T05:54:27;98621.28;;;0.45;71.66
69780;BME280;57052;55.602;38.096;2023-01-31T05:56:52;98607.13;;;0.40;71.44
69780;BME280;57052;55.602;38.096;2023-01-31T05:59:18;98611.38;;;0.41;71.31
69780;BME280;57052;55.602;38.096;2023-01-31T06:01:43;98629.28;;;0.45;71.58
69780;BME280;57052;55.602;38.096;2023-01-31T06:04:09;98622.38;;;0.44;71.42
69780;BME280;57052;55.602;38.096;2023-01-31T06:06:35;98627.50;;;0.51;71.16
69780;BME280;57052;55.602;38.096;2023-01-31T06:09:00;98622.91;;;0.46;71.10
69780;BME280;57052;55.602;38.096;2023-01-31T06:11:26;98648.47;;;0.64;71.06
69780;BME280;57052;55.602;38.096;2023-01-31T06:13:52;98641.44;;;0.58;71.29
69780;BME280;57052;55.602;38.096;2023-01-31T06:16:22;98647.19;;;0.67;71.24
69780;BME280;57052;55.602;38.096;2023-01-31T06:18:48;98640.75;;;0.62;71.34
69780;BME280;57052;55.602;38.096;2023-01-31T06:21:13;98648.22;;;0.65;70.91
69780;BME280;57052;55.602;38.096;2023-01-31T06:23:40;98646.38;;;0.66;71.04
69780;BME280;57052;55.602;38.096;2023-01-31T06:26:10;98658.53;;;0.79;70.71
69780;BME280;57052;55.602;38.096;2023-01-31T06:28:36;98652.41;;;0.78;70.58
69780;BME280;57052;55.602;38.096;2023-01-31T06:31:09;98645.34;;;0.67;70.61
69780;BME280;57052;55.602;38.096;2023-01-31T06:33:38;98659.53;;;0.73;70.94
69780;BME280;57052;55.602;38.096;2023-01-31T06:36:04;98653.41;;;0.72;70.68
69780;BME280;57052;55.602;38.096;2023-01-31T06:38:30;98650.97;;;0.71;70.78
69780;BME280;57052;55.602;38.096;2023-01-31T06:40:56;98658.53;;;0.79;70.97
69780;BME280;57052;55.602;38.096;2023-01-31T06:43:21;98648.44;;;0.81;70.69
69780;BME280;57052;55.602;38.096;2023-01-31T06:45:47;98673.16;;;0.76;70.48
69780;BME280;57052;55.602;38.096;2023-01-31T06:48:16;98671.88;;;0.62;70.90
69780;BME280;57052;55.602;38.096;2023-01-31T06:50:43;98675.91;;;0.64;71.03
69780;BME280;57052;55.602;38.096;2023-01-31T06:53:08;98663.63;;;0.63;70.71
69780;BME280;57052;55.602;38.096;2023-01-31T06:55:37;98685.56;;;0.71;70.58
69780;BME280;57052;55.602;38.096;2023-01-31T06:58:02;98681.88;;;0.72;70.66
69780;BME280;57052;55.602;38.096;2023-01-31T07:00:30;98686.38;;;0.71;70.60
69780;BME280;57052;55.602;38.096;2023-01-31T07:02:56;98687.75;;;0.74;70.31
69780;BME280;57052;55.602;38.096;2023-01-31T07:05:22;98680.34;;;0.59;70.95
69780;BME280;57052;55.602;38.096;2023-01-31T07:07:55;98692.38;;;0.61;70.81
69780;BME280;57052;55.602;38.096;2023-01-31T07:10:21;98701.06;;;0.74;70.62
69780;BME280;57052;55.602;38.096;2023-01-31T07:12:47;98695.03;;;0.61;70.72
69780;BME280;57052;55.602;38.096;2023-01-31T07:15:15;98702.94;;;0.56;70.75
69780;BME280;57052;55.602;38.096;2023-01-31T07:17:40;98704.53;;;0.74;70.40
69780;BME280;57052;55.602;38.096;2023-01-31T07:20:09;98711.25;;;0.77;70.81
69780;BME280;57052;55.602;38.096;2023-01-31T07:22:34;98704.63;;;0.79;70.61
69780;BME280;57052;55.602;38.096;2023-01-31T07:25:00;98712.69;;;0.84;70.38
69780;BME280;57052;55.602;38.096;2023-01-31T07:27:26;98673.56;;;0.68;70.04
69780;BME280;57052;55.602;38.096;2023-01-31T07:29:52;98696.22;;;0.87;70.16
69780;BME280;57052;55.602;38.096;2023-01-31T07:32:17;98690.56;;;0.84;69.90
69780;BME280;57052;55.602;38.096;2023-01-31T07:34:43;98711.75;;;0.95;69.86
69780;BME280;57052;55.602;38.096;2023-01-31T07:37:08;98722.94;;;0.92;70.18
69780;BME280;57052;55.602;38.096;2023-01-31T07:39:34;98695.59;;;0.80;70.10
69780;BME280;57052;55.602;38.096;2023-01-31T07:42:00;98719.19;;;0.93;70.20
69780;BME280;57052;55.602;38.096;2023-01-31T07:44:25;98726.09;;;0.89;70.01
69780;BME280;57052;55.602;38.096;2023-01-31T07:46:51;98724.31;;;0.95;70.19
69780;BME280;57052;55.602;38.096;2023-01-31T07:49:19;98733.31;;;1.10;69.42
69780;BME280;57052;55.602;38.096;2023-01-31T07:51:45;98722.75;;;0.99;70.10
69780;BME280;57052;55.602;38.096;2023-01-31T07:54:10;98730.09;;;1.08;69.79
69780;BME280;57052;55.602;38.096;2023-01-31T07:56:36;98733.63;;;1.14;69.50
69780;BME280;57052;55.602;38.096;2023-01-31T07:59:02;98732.34;;;1.16;69.80
69780;BME280;57052;55.602;38.096;2023-01-31T08:01:28;98739.28;;;1.17;70.08
69780;BME280;57052;55.602;38.096;2023-01-31T08:04:14;98743.47;;;1.13;69.84
69780;BME280;57052;55.602;38.096;2023-01-31T08:06:42;98746.63;;;1.10;69.89
69780;BME280;57052;55.602;38.096;2023-01-31T08:09:09;98750.91;;;1.11;70.34
69780;BME280;57052;55.602;38.096;2023-01-31T08:11:34;98753.03;;;1.09;69.93
69780;BME280;57052;55.602;38.096;2023-01-31T08:14:00;98755.28;;;1.17;69.98
69780;BME280;57052;55.602;38.096;2023-01-31T08:16:26;98736.88;;;0.99;69.90
69780;BME280;57052;55.602;38.096;2023-01-31T08:18:52;98749.28;;;1.10;69.58
69780;BME280;57052;55.602;38.096;2023-01-31T08:21:18;98755.91;;;1.24;69.67
69780;BME280;57052;55.602;38.096;2023-01-31T08:23:44;98749.88;;;1.12;69.79
69780;BME280;57052;55.602;38.096;2023-01-31T08:26:20;98742.19;;;1.16;69.92
69780;BME280;57052;55.602;38.096;2023-01-31T08:28:50;98773.00;;;1.28;70.22
69780;BME280;57052;55.602;38.096;2023-01-31T08:31:21;98770.97;;;1.36;69.52
69780;BME280;57052;55.602;38.096;2023-01-31T08:33:47;98763.38;;;1.44;69.19
69780;BME280;57052;55.602;38.096;2023-01-31T08:36:20;98764.41;;;1.43;69.64
69780;BME280;57052;55.602;38.096;2023-01-31T08:38:46;98767.19;;;1.32;69.83
69780;BME280;57052;55.602;38.096;2023-01-31T08:41:13;98749.66;;;1.36;69.85
69780;BME280;57052;55.602;38.096;2023-01-31T08:43:41;98743.28;;;1.37;69.57
69780;BME280;57052;55.602;38.096;2023-01-31T08:46:08;98757.91;;;1.56;69.05
69780;BME280;57052;55.602;38.096;2023-01-31T08:48:36;98764.38;;;1.60;69.26
69780;BME280;57052;55.602;38.096;2023-01-31T08:51:10;98754.06;;;1.47;69.18
69780;BME280;57052;55.602;38.096;2023-01-31T08:53:37;98777.78;;;1.65;68.84
69780;BME280;57052;55.602;38.096;2023-01-31T08:56:06;98767.28;;;1.58;68.71
69780;BME280;57052;55.602;38.096;2023-01-31T08:58:34;98781.31;;;1.70;69.07
69780;BME280;57052;55.602;38.096;2023-01-31T09:01:07;98779.69;;;1.69;68.55
69780;BME280;57052;55.602;38.096;2023-01-31T09:03:33;98778.69;;;1.75;68.71
69780;BME280;57052;55.602;38.096;2023-01-31T09:06:00;98781.06;;;1.72;69.01
69780;BME280;57052;55.602;38.096;2023-01-31T09:08:26;98784.41;;;1.62;69.42
69780;BME280;57052;55.602;38.096;2023-01-31T09:10:53;98762.28;;;1.62;68.77
69780;BME280;57052;55.602;38.096;2023-01-31T09:13:19;98769.22;;;1.63;68.80
69780;BME280;57052;55.602;38.096;2023-01-31T09:15:45;98775.72;;;1.72;68.98
69780;BME280;57052;55.602;38.096;2023-01-31T09:18:10;98772.06;;;1.78;69.06
69780;BME280;57052;55.602;38.096;2023-01-31T09:20:36;98775.09;;;1.86;68.76
69780;BME280;57052;55.602;38.096;2023-01-31T09:23:02;98778.09;;;1.90;68.26
69780;BME280;57052;55.602;38.096;2023-01-31T09:25:28;98774.41;;;1.96;68.12
69780;BME280;57052;55.602;38.096;2023-01-31T09:27:54;98766.47;;;2.01;68.39
69780;BME280;57052;55.602;38.096;2023-01-31T09:30:20;98765.53;;;2.12;68.61
69780;BME280;57052;55.602;38.096;2023-01-31T09:32:48;98769.50;;;2.10;67.90
69780;BME280;57052;55.602;38.096;2023-01-31T09:35:14;98773.94;;;2.26;67.66
69780;BME280;57052;55.602;38.096;2023-01-31T09:37:41;98762.59;;;2.14;68.23
69780;BME280;57052;55.602;38.096;2023-01-31T09:40:07;98764.78;;;2.17;68.28
69780;BME280;57052;55.602;38.096;2023-01-31T09:42:45;98766.91;;;2.15;67.64
69780;BME280;57052;55.602;38.096;2023-01-31T09:45:15;98764.84;;;2.22;67.88
69780;BME280;57052;55.602;38.096;2023-01-31T09:47:49;98765.28;;;2.14;67.76
69780;BME280;57052;55.602;38.096;2023-01-31T09:50:22;98758.78;;;2.05;67.89
69780;BME280;57052;55.602;38.096;2023-01-31T09:52:53;98773.84;;;2.16;68.18
69780;BME280;57052;55.602;38.096;2023-01-31T09:55:28;98777.75;;;2.08;67.83
69780;BME280;57052;55.602;38.096;2023-01-31T09:58:15;98782.97;;;2.20;68.09
69780;BME280;57052;55.602;38.096;2023-01-31T10:00:56;98779.00;;;2.22;67.80
69780;BME280;57052;55.602;38.096;2023-01-31T10:03:47;98784.81;;;2.19;67.45
69780;BME280;57052;55.602;38.096;2023-01-31T10:06:25;98777.63;;;2.20;67.69
69780;BME280;57052;55.602;38.096;2023-01-31T10:11:51;98768.75;;;2.14;67.57
69780;BME280;57052;55.602;38.096;2023-01-31T10:14:58;98791.09;;;2.30;67.11
69780;BME280;57052;55.602;38.096;2023-01-31T10:17:33;98779.00;;;2.22;67.32
69780;BME280;57052;55.602;38.096;2023-01-31T10:20:34;98749.47;;;2.07;67.67
69780;BME280;57052;55.602;38.096;2023-01-31T10:28:26;98783.13;;;2.35;67.23
69780;BME280;57052;55.602;38.096;2023-01-31T10:31:01;98795.41;;;2.36;67.64
69780;BME280;57052;55.602;38.096;2023-01-31T10:36:33;98783.72;;;2.42;67.08
69780;BME280;57052;55.602;38.096;2023-01-31T10:41:42;98778.19;;;2.48;67.29
69780;BME280;57052;55.602;38.096;2023-01-31T10:44:17;98794.28;;;2.58;66.69
69780;BME280;57052;55.602;38.096;2023-01-31T10:46:46;98793.00;;;2.61;67.11
69780;BME280;57052;55.602;38.096;2023-01-31T10:49:12;98791.13;;;2.62;66.80
69780;BME280;57052;55.602;38.096;2023-01-31T10:56:45;98795.41;;;2.36;67.43
69780;BME280;57052;55.602;38.096;2023-01-31T10:59:36;98802.09;;;2.38;67.49
69780;BME280;57052;55.602;38.096;2023-01-31T11:02:03;98800.41;;;2.27;67.45
69780;BME280;57052;55.602;38.096;2023-01-31T11:04:30;98800.69;;;2.31;67.99
69780;BME280;57052;55.602;38.096;2023-01-31T11:06:58;98800.16;;;2.29;67.93
69780;BME280;57052;55.602;38.096;2023-01-31T11:09:28;98789.34;;;2.19;68.04
69780;BME280;57052;55.602;38.096;2023-01-31T11:11:59;98803.06;;;2.27;68.01
69780;BME280;57052;55.602;38.096;2023-01-31T11:14:25;98807.53;;;2.22;68.04
69780;BME280;57052;55.602;38.096;2023-01-31T11:17:13;98802.75;;;2.24;67.72
69780;BME280;57052;55.602;38.096;2023-01-31T11:19:47;98807.59;;;2.27;68.01
69780;BME280;57052;55.602;38.096;2023-01-31T11:22:26;98807.91;;;2.30;67.61
69780;BME280;57052;55.602;38.096;2023-01-31T11:24:54;98795.28;;;2.26;68.12
69780;BME280;57052;55.602;38.096;2023-01-31T11:27:32;98806.56;;;2.28;67.66
69780;BME280;57052;55.602;38.096;2023-01-31T11:30:01;98791.22;;;2.18;68.18
69780;BME280;57052;55.602;38.096;2023-01-31T11:32:35;98801.78;;;2.30;67.63
69780;BME280;57052;55.602;38.096;2023-01-31T11:45:44;98798.28;;;2.29;67.77
69780;BME280;57052;55.602;38.096;2023-01-31T11:50:44;98819.16;;;2.32;67.84
69780;BME280;57052;55.602;38.096;2023-01-31T11:53:26;98819.25;;;2.21;67.58
69780;BME280;57052;55.602;38.096;2023-01-31T11:55:57;98810.00;;;2.28;67.75
69780;BME280;57052;55.602;38.096;2023-01-31T11:58:35;98822.31;;;2.29;67.98
69780;BME280;57052;55.602;38.096;2023-01-31T12:01:16;98835.91;;;2.28;67.81
69780;BME280;57052;55.602;38.096;2023-01-31T12:03:50;98826.34;;;2.32;67.31
69780;BME280;57052;55.602;38.096;2023-01-31T12:06:28;98832.78;;;2.36;67.96
69780;BME280;57052;55.602;38.096;2023-01-31T12:08:56;98836.88;;;2.43;67.61
69780;BME280;57052;55.602;38.096;2023-01-31T12:11:29;98830.75;;;2.43;67.92
69780;BME280;57052;55.602;38.096;2023-01-31T12:16:29;98824.09;;;2.24;67.95
69780;BME280;57052;55.602;38.096;2023-01-31T12:19:28;98833.97;;;2.23;67.14
69780;BME280;57052;55.602;38.096;2023-01-31T12:25:07;98844.97;;;2.27;67.65
69780;BME280;57052;55.602;38.096;2023-01-31T12:28:04;98825.69;;;2.20;68.08
69780;BME280;57052;55.602;38.096;2023-01-31T12:33:53;98840.16;;;2.02;67.66
69780;BME280;57052;55.602;38.096;2023-01-31T12:39:38;98850.25;;;2.00;68.05
69780;BME280;57052;55.602;38.096;2023-01-31T12:47:58;98848.63;;;1.99;68.17
69780;BME280;57052;55.602;38.096;2023-01-31T12:50:55;98851.25;;;1.94;68.15
69780;BME280;57052;55.602;38.096;2023-01-31T12:54:30;98859.50;;;2.14;68.01
69780;BME280;57052;55.602;38.096;2023-01-31T12:57:00;98862.38;;;2.08;67.58
69780;BME280;57052;55.602;38.096;2023-01-31T13:08:04;98876.75;;;2.07;68.40
69780;BME280;57052;55.602;38.096;2023-01-31T13:11:01;98871.41;;;2.07;68.06
69780;BME280;57052;55.602;38.096;2023-01-31T13:13:28;98883.94;;;2.06;68.50
69780;BME280;57052;55.602;38.096;2023-01-31T13:18:43;98878.00;;;2.21;67.96
69780;BME280;57052;55.602;38.096;2023-01-31T13:21:14;98886.06;;;2.26;68.36
69780;BME280;57052;55.602;38.096;2023-01-31T13:24:02;98885.28;;;2.25;67.35
69780;BME280;57052;55.602;38.096;2023-01-31T13:26:36;98886.06;;;2.26;67.90
69780;BME280;57052;55.602;38.096;2023-01-31T13:29:27;98885.31;;;2.09;68.04
69780;BME280;57052;55.602;38.096;2023-01-31T13:32:07;98878.75;;;2.16;68.40
69780;BME280;57052;55.602;38.096;2023-01-31T13:34:38;98895.97;;;2.25;68.35
69780;BME280;57052;55.602;38.096;2023-01-31T13:37:13;98894.53;;;2.18;68.36
69780;BME280;57052;55.602;38.096;2023-01-31T13:39:58;98888.53;;;2.11;68.08
69780;BME280;57052;55.602;38.096;2023-01-31T13:42:25;98889.91;;;2.13;68.50
69780;BME280;57052;55.602;38.096;2023-01-31T13:44:53;98884.34;;;2.15;68.45
69780;BME280;57052;55.602;38.096;2023-01-31T13:47:31;98886.69;;;2.11;67.90
69780;BME280;57052;55.602;38.096;2023-01-31T13:50:23;98888.88;;;2.14;67.71
69780;BME280;57052;55.602;38.096;2023-01-31T13:52:53;98901.53;;;2.24;68.73
69780;BME280;57052;55.602;38.096;2023-01-31T13:55:33;98901.16;;;2.15;68.36
69780;BME280;57052;55.602;38.096;2023-01-31T13:58:15;98895.84;;;2.15;68.30
69780;BME280;57052;55.602;38.096;2023-01-31T14:00:45;98897.81;;;2.25;68.23
69780;BME280;57052;55.602;38.096;2023-01-31T14:03:16;98907.53;;;2.14;68.37
69780;BME280;57052;55.602;38.096;2023-01-31T14:13:45;98896.00;;;2.09;68.90
69780;BME280;57052;55.602;38.096;2023-01-31T14:16:42;98893.59;;;2.07;68.52
69780;BME280;57052;55.602;38.096;2023-01-31T14:27:17;98902.41;;;2.08;68.61
69780;BME280;57052;55.602;38.096;2023-01-31T14:29:45;98905.78;;;2.03;68.35
69780;BME280;57052;55.602;38.096;2023-01-31T14:32:24;98917.13;;;2.10;67.78
69780;BME280;57052;55.602;38.096;2023-01-31T14:34:52;98917.34;;;2.09;68.20
69780;BME280;57052;55.602;38.096;2023-01-31T14:40:39;98938.69;;;2.09;67.70
69780;BME280;57052;55.602;38.096;2023-01-31T14:43:47;98949.22;;;2.15;67.67
69780;BME280;57052;55.602;38.096;2023-01-31T14:46:50;98936.59;;;2.11;67.87
69780;BME280;57052;55.602;38.096;2023-01-31T14:52:32;98945.25;;;2.18;67.41
69780;BME280;57052;55.602;38.096;2023-01-31T14:57:50;98950.75;;;2.11;67.79
69780;BME280;57052;55.602;38.096;2023-01-31T15:00:24;98947.03;;;2.12;68.57
69780;BME280;57052;55.602;38.096;2023-01-31T15:16:01;98944.44;;;2.01;68.19
69780;BME280;57052;55.602;38.096;2023-01-31T15:18:28;98955.19;;;2.06;68.62
69780;BME280;57052;55.602;38.096;2023-01-31T15:20:56;98959.16;;;2.03;68.42
69780;BME280;57052;55.602;38.096;2023-01-31T15:23:25;98956.50;;;2.03;68.71